createdAt,value
2023-04-15T00:01:13.402Z,15.60
2023-04-15T00:03:41.362Z,17.03
2023-04-15T00:06:09.844Z,14.82
2023-04-15T00:08:37.145Z,15.60
2023-04-15T00:11:05.996Z,16.30
2023-04-15T00:13:34.210Z,17.38
2023-04-15T00:16:01.828Z,15.70
2023-04-15T00:18:32.269Z,18.38
2023-04-15T00:20:59.600Z,14.27
2023-04-15T00:23:26.862Z,16.27
2023-04-15T00:25:54.188Z,15.38
2023-04-15T00:28:21.697Z,15.07
2023-04-15T00:30:48.993Z,14.30
2023-04-15T00:33:19.182Z,12.23
2023-04-15T00:35:47.439Z,14.45
2023-04-15T00:38:14.760Z,12.02
2023-04-15T00:40:42.625Z,14.30
2023-04-15T00:43:10.255Z,15.45
2023-04-15T00:45:37.653Z,11.82
2023-04-15T00:48:04.990Z,14.60
2023-04-15T00:50:33.071Z,13.57
2023-04-15T00:53:00.350Z,13.23
2023-04-15T00:55:28.145Z,14.10
2023-04-15T00:57:56.362Z,12.82
2023-04-15T01:00:23.732Z,11.57
2023-04-15T01:02:51.128Z,12.32
2023-04-15T01:05:19.501Z,11.73
2023-04-15T01:07:47.984Z,13.98
2023-04-15T01:10:15.301Z,11.95
2023-04-15T01:12:43.562Z,13.85
2023-04-15T01:15:11.202Z,10.50
2023-04-15T01:17:39.325Z,10.60
2023-04-15T01:20:10.590Z,13.82
2023-04-15T01:22:38.495Z,12.02
2023-04-15T01:25:13.186Z,14.40
2023-04-15T01:27:41.172Z,11.43
2023-04-15T01:30:09.213Z,13.40
2023-04-15T01:32:36.978Z,12.48
2023-04-15T01:35:04.491Z,11.38
2023-04-15T01:37:32.102Z,12.52
2023-04-15T01:39:59.889Z,16.52
2023-04-15T01:42:27.779Z,12.47
2023-04-15T01:44:55.162Z,12.57
2023-04-15T01:47:22.574Z,11.43
2023-04-15T01:49:49.973Z,11.07
2023-04-15T01:52:17.257Z,10.38
2023-04-15T01:54:44.590Z,10.40
2023-04-15T01:57:12.964Z,14.77
2023-04-15T01:59:41.118Z,13.02
2023-04-15T02:02:08.535Z,12.18
2023-04-15T02:04:35.830Z,13.05
2023-04-15T02:07:03.075Z,13.97
2023-04-15T02:09:30.432Z,12.95
2023-04-15T02:11:57.757Z,12.50
2023-04-15T02:14:25.065Z,12.13
2023-04-15T02:16:54.984Z,11.75
2023-04-15T02:19:22.270Z,16.27
2023-04-15T02:21:49.528Z,15.50
2023-04-15T02:24:18.375Z,11.88
2023-04-15T02:26:46.758Z,13.45
2023-04-15T02:29:14.078Z,13.20
2023-04-15T02:31:42.308Z,12.93
2023-04-15T02:34:09.682Z,12.15
2023-04-15T02:36:37.011Z,13.63
2023-04-15T02:39:05.875Z,11.90
2023-04-15T02:41:33.166Z,12.27
2023-04-15T02:44:00.811Z,11.57
2023-04-15T02:46:30.823Z,13.43
2023-04-15T02:49:00.363Z,12.10
2023-04-15T02:51:31.300Z,10.60
2023-04-15T02:53:58.684Z,10.52
2023-04-15T02:56:26.135Z,11.23
2023-04-15T02:58:56.168Z,11.55
2023-04-15T03:01:24.327Z,12.88
2023-04-15T03:03:51.817Z,11.30
2023-04-15T03:06:19.332Z,12.10
2023-04-15T03:08:46.759Z,12.90
2023-04-15T03:11:15.319Z,12.27
2023-04-15T03:13:43.464Z,13.43
2023-04-15T03:16:21.900Z,13.10
2023-04-15T03:18:49.358Z,15.32
2023-04-15T03:21:16.712Z,15.30
2023-04-15T03:23:45.445Z,16.33
2023-04-15T03:26:24.885Z,17.23
2023-04-15T03:28:53.037Z,18.50
2023-04-15T03:31:20.583Z,15.60
2023-04-15T03:33:48.011Z,18.20
2023-04-15T03:36:15.755Z,16.58
2023-04-15T03:38:43.297Z,19.55
2023-04-15T03:41:10.653Z,22.02
2023-04-15T03:43:37.926Z,21.23
2023-04-15T03:46:05.333Z,23.40
2023-04-15T03:48:32.626Z,23.88
2023-04-15T03:50:59.913Z,22.50
2023-04-15T03:53:27.234Z,23.45
2023-04-15T03:55:54.531Z,22.38
2023-04-15T03:58:21.883Z,22.83
2023-04-15T04:00:49.102Z,23.13
2023-04-15T04:03:16.756Z,23.23
2023-04-15T04:05:44.614Z,22.10
2023-04-15T04:08:13.984Z,22.27
2023-04-15T04:10:41.429Z,20.67
2023-04-15T04:13:08.741Z,20.88
2023-04-15T04:15:36.376Z,20.35
2023-04-15T04:18:03.856Z,21.92
2023-04-15T04:20:32.182Z,18.40
2023-04-15T04:22:59.483Z,18.13
2023-04-15T04:25:27.361Z,17.98
2023-04-15T04:27:54.650Z,16.83
2023-04-15T04:30:22.339Z,17.75
2023-04-15T04:32:50.198Z,18.52
2023-04-15T04:35:17.535Z,16.37
2023-04-15T04:37:44.831Z,17.45
2023-04-15T04:40:12.644Z,20.45
2023-04-15T04:42:40.265Z,19.10
2023-04-15T04:45:08.734Z,17.00
2023-04-15T04:47:36.357Z,18.37
2023-04-15T04:50:03.821Z,14.60
2023-04-15T04:52:31.178Z,17.33
2023-04-15T04:54:58.434Z,17.38
2023-04-15T04:57:25.705Z,17.13
2023-04-15T04:59:53.009Z,17.27
2023-04-15T05:02:20.614Z,16.35
2023-04-15T05:04:47.967Z,17.92
2023-04-15T05:07:15.977Z,16.77
2023-04-15T05:09:43.247Z,16.48
2023-04-15T05:12:15.019Z,15.10
2023-04-15T05:14:42.465Z,15.95
2023-04-15T05:17:09.768Z,17.13
2023-04-15T05:19:37.106Z,16.20
2023-04-15T05:22:04.435Z,15.95
2023-04-15T05:24:31.726Z,16.43
2023-04-15T05:26:58.948Z,17.00
2023-04-15T05:29:26.292Z,17.98
2023-04-15T05:31:53.617Z,16.92
2023-04-15T05:34:20.900Z,15.35
2023-04-15T05:36:48.148Z,16.17
2023-04-15T05:39:15.548Z,18.10
2023-04-15T05:41:42.829Z,18.00
2023-04-15T05:44:10.233Z,16.75
2023-04-15T05:46:37.896Z,17.77
2023-04-15T05:49:05.194Z,15.50
2023-04-15T05:51:32.459Z,16.17
2023-04-15T05:53:59.814Z,16.23
2023-04-15T05:56:27.294Z,15.23
2023-04-15T05:58:54.578Z,17.88
2023-04-15T06:01:22.238Z,17.80
2023-04-15T06:03:49.752Z,14.38
2023-04-15T06:06:17.142Z,15.45
2023-04-15T06:08:44.491Z,17.40
2023-04-15T06:11:11.811Z,15.45
2023-04-15T06:13:39.044Z,16.87
2023-04-15T06:16:06.944Z,16.88
2023-04-15T06:18:34.263Z,15.82
2023-04-15T06:21:01.719Z,16.50
2023-04-15T06:23:29.060Z,17.35
2023-04-15T06:25:56.367Z,18.67
2023-04-15T06:28:23.629Z,18.73
2023-04-15T06:30:50.935Z,17.90
2023-04-15T06:35:10.720Z,16.85
2023-04-15T06:37:38.094Z,17.70
2023-04-15T06:40:06.299Z,15.93
2023-04-15T06:42:34.105Z,14.20
2023-04-15T06:45:01.775Z,16.02
2023-04-15T06:47:29.149Z,17.00
2023-04-15T06:49:56.499Z,15.63
2023-04-15T06:52:23.784Z,13.40
2023-04-15T06:54:51.212Z,13.50
2023-04-15T06:57:18.490Z,14.30
2023-04-15T06:59:46.163Z,15.93
2023-04-15T07:02:14.136Z,11.88
2023-04-15T07:04:41.515Z,13.73
2023-04-15T07:07:09.522Z,12.23
2023-04-15T07:09:36.884Z,13.50
2023-04-15T07:12:04.256Z,12.18
2023-04-15T07:14:31.878Z,10.52
2023-04-15T07:16:59.176Z,11.07
2023-04-15T07:19:26.683Z,12.18
2023-04-15T07:21:54.015Z,11.60
2023-04-15T07:24:23.248Z,11.57
2023-04-15T07:26:50.532Z,13.45
2023-04-15T07:29:17.869Z,13.40
2023-04-15T07:31:45.150Z,14.07
2023-04-15T07:34:12.455Z,13.05
2023-04-15T07:36:40.435Z,13.30
2023-04-15T07:39:07.850Z,15.10
2023-04-15T07:41:35.275Z,14.77
2023-04-15T07:44:02.706Z,13.55
2023-04-15T07:46:30.062Z,13.75
2023-04-15T07:48:57.505Z,14.60
2023-04-15T07:51:24.906Z,14.07
2023-04-15T07:53:52.913Z,14.60
2023-04-15T07:56:20.823Z,14.05
2023-04-15T07:58:48.087Z,13.95
2023-04-15T08:01:15.358Z,14.25
2023-04-15T08:03:43.247Z,13.13
2023-04-15T08:06:10.728Z,15.77
2023-04-15T08:08:38.007Z,14.90
2023-04-15T08:11:05.472Z,12.52
2023-04-15T08:13:32.767Z,13.95
2023-04-15T08:16:22.812Z,16.10
2023-04-15T08:18:51.590Z,16.07
2023-04-15T08:21:19.392Z,10.93
2023-04-15T08:23:47.591Z,10.02
2023-04-15T08:26:14.838Z,8.80
2023-04-15T08:28:42.466Z,10.43
2023-04-15T08:31:09.946Z,7.73
2023-04-15T08:33:37.289Z,7.50
2023-04-15T08:36:04.789Z,8.27
2023-04-15T08:38:32.182Z,8.93
2023-04-15T08:41:00.795Z,9.48
2023-04-15T08:43:30.395Z,7.67
2023-04-15T08:45:59.141Z,6.57
2023-04-15T08:48:26.641Z,9.90
2023-04-15T08:50:53.932Z,9.05
2023-04-15T08:53:21.609Z,6.85
2023-04-15T08:55:52.558Z,6.23
2023-04-15T08:58:19.909Z,7.63
2023-04-15T09:00:48.864Z,8.75
2023-04-15T09:03:17.557Z,6.45
2023-04-15T09:05:44.987Z,6.70
2023-04-15T09:08:12.773Z,6.40
2023-04-15T09:10:40.137Z,7.22
2023-04-15T09:13:07.424Z,7.68
2023-04-15T09:15:34.709Z,7.05
2023-04-15T09:18:04.491Z,6.95
2023-04-15T09:20:31.758Z,6.70
2023-04-15T09:22:59.064Z,6.25
2023-04-15T09:25:28.308Z,5.82
2023-04-15T09:28:01.196Z,5.10
2023-04-15T09:30:29.166Z,5.22
2023-04-15T09:33:00.870Z,7.17
2023-04-15T09:35:28.294Z,5.70
2023-04-15T09:38:03.713Z,3.47
2023-04-15T09:40:41.265Z,4.70
2023-04-15T09:43:09.743Z,4.65
2023-04-15T09:45:37.256Z,3.47
2023-04-15T09:48:21.589Z,4.32
2023-04-15T09:50:49.536Z,5.35
2023-04-15T09:53:18.311Z,5.85
2023-04-15T09:55:52.567Z,7.78
2023-04-15T09:58:23.733Z,7.13
2023-04-15T10:00:51.949Z,4.43
2023-04-15T10:03:20.719Z,5.70
2023-04-15T10:05:49.765Z,4.32
2023-04-15T10:08:19.161Z,5.10
2023-04-15T10:10:47.463Z,4.50
2023-04-15T10:13:19.564Z,3.67
2023-04-15T10:15:53.523Z,6.30
2023-04-15T10:18:21.884Z,5.38
2023-04-15T10:20:52.030Z,3.70
2023-04-15T10:23:20.577Z,6.27
2023-04-15T10:25:49.011Z,3.90
2023-04-15T10:28:16.918Z,4.88
2023-04-15T10:30:44.182Z,3.60
2023-04-15T10:33:11.444Z,4.88
2023-04-15T10:35:39.323Z,4.90
2023-04-15T10:38:31.466Z,4.30
2023-04-15T10:41:34.682Z,4.68
2023-04-15T10:44:03.577Z,3.58
2023-04-15T10:46:38.701Z,3.88
2023-04-15T10:49:17.079Z,3.23
2023-04-15T10:51:46.020Z,4.95
2023-04-15T10:54:18.075Z,4.03
2023-04-15T10:56:45.509Z,5.40
2023-04-15T10:59:12.780Z,4.32
2023-04-15T11:02:15.977Z,2.90
2023-04-15T11:04:55.950Z,2.58
2023-04-15T11:07:36.963Z,2.38
2023-04-15T11:10:25.705Z,2.40
2023-04-15T11:12:54.261Z,3.42
2023-04-15T11:15:32.546Z,5.63
2023-04-15T11:18:19.360Z,4.32
2023-04-15T11:20:59.655Z,3.55
2023-04-15T11:23:39.454Z,6.57
2023-04-15T11:26:09.926Z,3.25
2023-04-15T11:31:27.910Z,4.95
2023-04-15T11:33:57.032Z,4.32
2023-04-15T11:34:21.176Z,5.60
2023-04-15T11:36:27.946Z,3.13
2023-04-15T11:38:55.610Z,3.05
2023-04-15T11:41:25.988Z,4.53
2023-04-15T11:43:53.295Z,4.13
2023-04-15T11:46:21.970Z,4.60
2023-04-15T11:48:49.306Z,4.25
2023-04-15T11:51:16.721Z,5.43
2023-04-15T11:53:47.916Z,3.90
2023-04-15T11:56:21.972Z,3.75
2023-04-15T11:58:52.058Z,3.78
2023-04-15T12:01:19.492Z,3.13
2023-04-15T12:03:47.373Z,3.42
2023-04-15T12:06:21.803Z,3.50
2023-04-15T12:08:59.106Z,2.42
2023-04-15T12:11:26.255Z,4.20
2023-04-15T12:13:57.045Z,2.83
2023-04-15T12:16:25.034Z,3.10
2023-04-15T12:18:52.935Z,2.67
2023-04-15T12:21:21.044Z,3.13
2023-04-15T12:23:50.258Z,2.40
2023-04-15T12:26:18.337Z,2.22
2023-04-15T12:28:45.627Z,2.55
2023-04-15T12:31:15.813Z,2.87
2023-04-15T12:33:43.569Z,3.22
2023-04-15T12:36:10.931Z,4.10
2023-04-15T12:38:38.282Z,3.33
2023-04-15T12:41:05.652Z,5.10
2023-04-15T12:43:33.013Z,4.67
2023-04-15T12:46:00.280Z,3.50
2023-04-15T12:48:27.525Z,1.58
2023-04-15T12:50:54.823Z,1.48
2023-04-15T12:53:22.409Z,1.90
2023-04-15T12:55:49.757Z,1.50
2023-04-15T12:58:17.075Z,1.85
2023-04-15T13:00:44.831Z,2.20
2023-04-15T13:03:12.237Z,1.65
2023-04-15T13:05:39.911Z,3.33
2023-04-15T13:08:07.250Z,4.43
2023-04-15T13:10:36.572Z,1.42
2023-04-15T13:13:04.160Z,1.52
2023-04-15T13:15:31.539Z,2.75
2023-04-15T13:17:58.817Z,1.20
2023-04-15T13:20:27.092Z,0.90
2023-04-15T13:22:54.416Z,0.80
2023-04-15T13:25:21.839Z,1.15
2023-04-15T13:27:50.186Z,2.58
2023-04-15T13:30:17.662Z,0.70
2023-04-15T13:32:44.999Z,0.80
2023-04-15T13:35:12.338Z,1.42
2023-04-15T13:37:39.677Z,1.45
2023-04-15T13:40:07.858Z,0.90
2023-04-15T13:42:35.203Z,1.10
2023-04-15T13:45:02.499Z,0.90
2023-04-15T13:47:29.754Z,0.82
2023-04-15T13:49:57.602Z,1.42
2023-04-15T13:52:24.895Z,1.27
2023-04-15T13:55:17.991Z,1.85
2023-04-15T13:57:39.490Z,1.73
2023-04-15T14:00:07.562Z,0.90
2023-04-15T14:02:35.966Z,3.65
2023-04-15T14:05:03.469Z,2.40
2023-04-15T14:07:31.018Z,4.05
2023-04-15T14:09:58.411Z,3.90
2023-04-15T14:12:25.671Z,3.10
2023-04-15T14:14:53.063Z,3.40
2023-04-15T14:17:20.421Z,2.05
2023-04-15T14:19:47.694Z,2.40
2023-04-15T14:22:14.938Z,1.13
2023-04-15T14:24:42.246Z,2.47
2023-04-15T14:27:11.260Z,2.05
2023-04-15T14:29:38.616Z,3.65
2023-04-15T14:32:12.353Z,3.67
2023-04-15T14:34:40.743Z,6.03
2023-04-15T14:37:08.049Z,4.10
2023-04-15T14:39:35.323Z,2.95
2023-04-15T14:42:02.558Z,3.78
2023-04-15T14:47:02.031Z,3.13
2023-04-15T14:49:30.456Z,4.20
2023-04-15T14:51:57.704Z,3.05
2023-04-15T14:54:24.958Z,2.15
2023-04-15T14:56:52.229Z,2.72
2023-04-15T14:59:19.497Z,3.30
2023-04-15T15:01:46.830Z,3.03
2023-04-15T15:04:14.397Z,1.90
2023-04-15T15:06:41.950Z,2.95
2023-04-15T15:09:09.270Z,3.38
2023-04-15T15:11:36.578Z,2.50
2023-04-15T15:14:03.993Z,15.45
2023-04-15T15:16:31.729Z,5.43
2023-04-15T15:18:59.029Z,3.67
2023-04-15T15:21:27.154Z,5.85
2023-04-15T15:23:54.493Z,6.23
2023-04-15T15:26:22.036Z,10.82
2023-04-15T15:28:50.790Z,7.53
2023-04-15T15:31:18.117Z,4.20
2023-04-15T15:33:45.441Z,4.20
2023-04-15T15:36:12.754Z,21.63
2023-04-15T15:38:40.776Z,5.47
2023-04-15T15:41:08.041Z,6.75
2023-04-15T15:43:35.355Z,6.88
2023-04-15T15:46:02.913Z,3.63
2023-04-15T15:48:30.355Z,4.20
2023-04-15T15:50:57.682Z,2.38
2023-04-15T15:53:25.938Z,1.38
2023-04-15T15:55:53.968Z,1.88
2023-04-15T15:58:21.446Z,2.10
2023-04-15T16:00:48.770Z,3.73
2023-04-15T16:03:16.359Z,2.72
2023-04-15T16:05:44.019Z,1.35
2023-04-15T16:08:11.308Z,2.10
2023-04-15T16:10:38.620Z,1.55
2023-04-15T16:13:05.892Z,2.87
2023-04-15T16:15:33.301Z,2.58
2023-04-15T16:18:00.727Z,1.85
2023-04-15T16:20:28.938Z,2.35
2023-04-15T16:22:57.125Z,2.50
2023-04-15T16:25:24.928Z,3.10
2023-04-15T16:28:01.424Z,3.78
2023-04-15T16:30:30.724Z,3.75
2023-04-15T16:32:58.077Z,2.38
2023-04-15T16:35:25.382Z,4.35
2023-04-15T16:37:52.667Z,6.63
2023-04-15T16:40:19.969Z,5.60
2023-04-15T16:42:47.258Z,4.95
2023-04-15T16:45:14.581Z,10.40
2023-04-15T16:47:41.900Z,15.95
2023-04-15T16:50:09.704Z,14.33
2023-04-15T16:52:37.009Z,28.35
2023-04-15T16:55:05.227Z,31.85
2023-04-15T16:57:40.496Z,37.38
2023-04-15T17:00:20.288Z,16.98
2023-04-15T17:02:47.731Z,12.83
2023-04-15T17:05:15.118Z,12.32
2023-04-15T17:07:42.361Z,8.38
2023-04-15T17:10:10.153Z,6.55
2023-04-15T17:12:37.683Z,4.45
2023-04-15T17:15:05.684Z,4.60
2023-04-15T17:17:33.152Z,8.32
2023-04-15T17:20:00.473Z,8.63
2023-04-15T17:22:27.787Z,10.93
2023-04-15T17:24:55.054Z,6.22
2023-04-15T17:27:22.776Z,4.90
2023-04-15T17:29:50.003Z,15.55
2023-04-15T17:32:17.234Z,14.48
2023-04-15T17:34:49.520Z,13.05
2023-04-15T17:37:18.694Z,8.27
2023-04-15T17:39:46.280Z,5.40
2023-04-15T17:42:13.666Z,7.85
2023-04-15T17:44:41.218Z,5.40
2023-04-15T17:47:08.459Z,6.35
2023-04-15T17:49:37.841Z,7.88
2023-04-15T17:52:05.287Z,9.67
2023-04-15T17:54:32.558Z,8.50
2023-04-15T17:57:00.288Z,8.90
2023-04-15T17:59:27.902Z,6.53
2023-04-15T18:01:55.500Z,9.00
2023-04-15T18:04:26.486Z,8.50
2023-04-15T18:06:54.276Z,10.05
2023-04-15T18:09:21.801Z,13.55
2023-04-15T18:11:49.272Z,14.32
2023-04-15T18:14:30.550Z,13.30
2023-04-15T18:16:58.306Z,14.20
2023-04-15T18:19:25.856Z,17.30
2023-04-15T18:21:53.145Z,16.27
2023-04-15T18:24:20.651Z,16.73
2023-04-15T18:26:49.195Z,15.65
2023-04-15T18:29:16.899Z,13.53
2023-04-15T18:31:44.271Z,15.75
2023-04-15T18:34:11.544Z,15.13
2023-04-15T18:36:38.820Z,14.40
2023-04-15T18:39:06.224Z,14.95
2023-04-15T18:41:33.771Z,17.83
2023-04-15T18:44:01.080Z,14.90
2023-04-15T18:46:28.385Z,17.55
2023-04-15T18:48:55.654Z,19.35
2023-04-15T18:51:22.906Z,20.00
2023-04-15T18:53:50.485Z,18.27
2023-04-15T18:56:17.740Z,20.58
2023-04-15T18:59:08.586Z,20.67
2023-04-15T19:01:32.420Z,20.50
2023-04-15T19:03:59.894Z,24.70
2023-04-15T19:06:28.684Z,25.00
2023-04-15T19:08:57.983Z,26.42
2023-04-15T19:11:26.009Z,24.98
2023-04-15T19:13:53.408Z,23.48
2023-04-15T19:16:21.129Z,26.55
2023-04-15T19:18:48.464Z,25.33
2023-04-15T19:21:15.757Z,28.67
2023-04-15T19:23:43.219Z,31.90
2023-04-15T19:26:11.255Z,24.38
2023-04-15T19:28:38.538Z,35.45
2023-04-15T19:31:05.939Z,33.10
2023-04-15T19:33:33.356Z,28.52
2023-04-15T19:36:05.551Z,26.02
2023-04-15T19:38:34.984Z,26.15
2023-04-15T19:41:02.322Z,27.50
2023-04-15T19:43:29.866Z,22.80
2023-04-15T19:45:57.272Z,28.15
2023-04-15T19:48:24.760Z,27.80
2023-04-15T19:50:52.067Z,30.35
2023-04-15T19:53:19.324Z,30.52
2023-04-15T19:55:48.406Z,24.92
2023-04-15T19:58:16.173Z,28.27
2023-04-15T20:00:43.534Z,18.80
2023-04-15T20:03:10.991Z,27.15
2023-04-15T20:05:38.386Z,18.17
2023-04-15T20:08:05.744Z,21.00
2023-04-15T20:10:33.020Z,19.45
2023-04-15T20:13:00.523Z,20.20
2023-04-15T20:15:27.828Z,19.73
2023-04-15T20:17:55.207Z,27.60
2023-04-15T20:20:22.582Z,30.85
2023-04-15T20:22:49.927Z,25.35
2023-04-15T20:25:17.251Z,26.83
2023-04-15T20:27:44.760Z,26.90
2023-04-15T20:30:12.111Z,24.95
2023-04-15T20:32:39.436Z,24.05
2023-04-15T20:35:07.303Z,26.20
2023-04-15T20:37:34.879Z,23.63
2023-04-15T20:40:02.422Z,20.23
2023-04-15T20:42:34.335Z,21.42
2023-04-15T20:45:02.144Z,20.63
2023-04-15T20:47:30.000Z,23.17
2023-04-15T20:49:57.384Z,20.50
2023-04-15T20:52:24.628Z,17.77
2023-04-15T20:54:52.010Z,19.63
2023-04-15T20:57:20.230Z,20.08
2023-04-15T20:59:47.595Z,21.38
2023-04-15T21:02:14.999Z,18.45
2023-04-15T21:04:42.357Z,19.40
2023-04-15T21:07:10.023Z,20.10
2023-04-15T21:09:41.317Z,18.60
2023-04-15T21:12:09.304Z,20.48
2023-04-15T21:14:37.090Z,22.65
2023-04-15T21:17:09.256Z,18.42
2023-04-15T21:19:37.615Z,18.65
2023-04-15T21:22:04.985Z,17.15
2023-04-15T21:24:32.243Z,17.63
2023-04-15T21:26:59.493Z,21.50
2023-04-15T21:29:26.825Z,18.73
2023-04-15T21:31:54.225Z,20.65
2023-04-15T21:34:21.650Z,24.73
2023-04-15T21:36:49.041Z,22.02
2023-04-15T21:39:17.140Z,24.38
2023-04-15T21:41:44.470Z,25.58
2023-04-15T21:44:14.401Z,22.88
2023-04-15T21:46:46.005Z,28.83
2023-04-15T21:49:13.959Z,26.60
2023-04-15T21:51:41.327Z,27.38
2023-04-15T21:54:08.610Z,27.77
2023-04-15T21:56:36.873Z,27.50
2023-04-15T21:59:04.402Z,22.63
2023-04-15T22:01:32.028Z,22.65
2023-04-15T22:03:59.665Z,22.20
2023-04-15T22:06:27.200Z,21.88
2023-04-15T22:08:57.565Z,19.77
2023-04-15T22:11:30.366Z,19.77
2023-04-15T22:13:58.376Z,20.20
2023-04-15T22:16:26.546Z,18.33
2023-04-15T22:18:54.843Z,19.17
2023-04-15T22:21:22.305Z,19.13
2023-04-15T22:23:49.613Z,17.65
2023-04-15T22:26:16.892Z,20.38
2023-04-15T22:28:44.192Z,19.42
2023-04-15T22:31:11.634Z,19.42
2023-04-15T22:33:39.104Z,20.75
2023-04-15T22:36:06.479Z,17.23
2023-04-15T22:38:33.787Z,20.30
2023-04-15T22:41:01.315Z,21.75
2023-04-15T22:43:28.664Z,21.60
2023-04-15T22:45:56.632Z,17.30
2023-04-15T22:48:24.036Z,18.17
2023-04-15T22:50:51.643Z,19.65
2023-04-15T22:53:19.011Z,18.83
2023-04-15T22:55:49.488Z,17.50
2023-04-15T22:58:18.356Z,19.83
2023-04-15T23:00:45.911Z,19.00
2023-04-15T23:03:13.334Z,19.30
2023-04-15T23:05:41.294Z,17.27
2023-04-15T23:08:08.749Z,18.05
2023-04-15T23:10:36.023Z,17.15
2023-04-15T23:13:03.263Z,18.00
2023-04-15T23:15:30.570Z,16.30
2023-04-15T23:17:57.991Z,15.60
2023-04-15T23:20:25.369Z,15.07
2023-04-15T23:22:52.640Z,15.80
2023-04-15T23:25:22.291Z,14.15
2023-04-15T23:27:49.609Z,15.88
2023-04-15T23:30:16.936Z,14.32
2023-04-15T23:32:44.306Z,13.23
2023-04-15T23:35:11.723Z,14.20
2023-04-15T23:37:39.004Z,13.85
2023-04-15T23:40:07.011Z,14.88
2023-04-15T23:42:34.295Z,17.60
2023-04-15T23:45:01.595Z,17.98
2023-04-15T23:47:28.936Z,15.85
2023-04-15T23:49:56.522Z,15.25
2023-04-15T23:52:24.053Z,14.23
2023-04-15T23:54:51.448Z,16.20
2023-04-15T23:57:18.886Z,20.30
2023-04-15T23:59:46.256Z,15.10
